M I D A S
Marine Information and Data Acquisition System
Tripno 1998 of the Zeeleeuw from 2010-11-29 08:01:01 to 2010-11-29 15:53:27
Back to CruiseResearch ActivitiesStationsMapUnderway DataData graphs

EquipmentUnitsComment
TimeDGPSUTC
LatitudeDGPSDM.mWGS84
LongitudeDGPSDM.mWGS84
HeadingGyrodeg 
SOGDGPSknotsSpeed over ground
COGDGPSdegCourse over ground
DepthEcho soundermeters200 kHz
Missing or incorrect values are displayed as -999
Navigation data collected by the RV Zeeleeuw from 2010-11-29 07:42:19 to 2010-11-29 16:04:58
                                                                                    Next 1000 lines
Time Latitude Longitude Heading SOG COG Depth
2010-11-29 07:42:29 51°13.663 2°55.96 123.1 0.1 58 9.2
2010-11-29 07:42:35 51°13.663 2°55.96 123 -999 188 -999
2010-11-29 07:42:40 51°13.663 2°55.96 123 0.1 -999 9.3
2010-11-29 07:42:45 51°13.663 2°55.96 122.8 -999 23 9.2
2010-11-29 07:42:49 51°13.663 2°55.96 122.7 0.2 161 9.2
2010-11-29 07:42:54 51°13.663 2°55.96 122.4 0.2 160 9.3
2010-11-29 07:43:00 51°13.662 2°55.96 122.2 0.1 181 9.3
2010-11-29 07:43:04 51°13.662 2°55.96 122.7 0.1 182 9.3
2010-11-29 07:43:09 51°13.662 2°55.96 124.1 0.1 127 9.3
2010-11-29 07:43:14 51°13.662 2°55.96 125.1 -999 279 9.3
2010-11-29 07:43:19 51°13.662 2°55.96 125.9 0.1 -999 9.3
2010-11-29 07:43:25 51°13.662 2°55.96 125.8 0.1 296 9.3
2010-11-29 07:43:29 51°13.662 2°55.96 125.5 0.1 318 9.3
2010-11-29 07:43:34 51°13.662 2°55.96 125.2 -999 301 9.3
2010-11-29 07:43:40 51°13.662 2°55.96 125 -999 312 9.3
2010-11-29 07:43:45 51°13.662 2°55.96 124.9 0.1 347 9.3
2010-11-29 07:43:49 51°13.662 2°55.96 124.9 -999 203 9.3
2010-11-29 07:43:54 51°13.662 2°55.959 124.6 0.1 270 9.4
2010-11-29 07:44:00 51°13.662 2°55.959 124.3 -999 285 9.3
2010-11-29 07:44:05 51°13.662 2°55.959 124.1 -999 306 9.4
2010-11-29 07:44:09 51°13.662 2°55.959 123.6 0.1 342 9.3
2010-11-29 07:44:14 51°13.662 2°55.959 123.3 0.1 355 9.3
2010-11-29 07:44:20 51°13.662 2°55.959 123 0.1 320 9.3
2010-11-29 07:44:24 51°13.662 2°55.959 122.7 0.1 338 9.3
2010-11-29 07:44:29 51°13.663 2°55.959 122.5 0.1 317 9.2
2010-11-29 07:44:34 51°13.663 2°55.959 122.2 0.2 -999 -999
2010-11-29 07:44:40 51°13.662 2°55.959 122.3 -999 210 9.2
2010-11-29 07:44:45 51°13.663 2°55.959 122.7 -999 2 9.2
2010-11-29 07:44:49 51°13.663 2°55.959 122.9 -999 51 9.2
2010-11-29 07:44:55 51°13.663 2°55.959 123.2 -999 150 9.2
2010-11-29 07:45:00 51°13.663 2°55.959 123.3 -999 256 9.2
2010-11-29 07:45:04 51°13.663 2°55.959 123.3 -999 199 9.2
2010-11-29 07:45:10 51°13.663 2°55.959 123.1 -999 127 -999
2010-11-29 07:45:15 51°13.663 2°55.959 122.8 -999 248 9.2
2010-11-29 07:45:21 51°13.662 2°55.958 122.3 -999 197 9.2
2010-11-29 07:45:25 51°13.662 2°55.958 122 0.1 210 9.3
2010-11-29 07:45:30 51°13.662 2°55.958 121.6 0.2 182 9.5
2010-11-29 07:45:35 51°13.662 2°55.958 121.6 0.2 175 9.3
2010-11-29 07:45:40 51°13.662 2°55.959 121.7 0.1 188 9.3
2010-11-29 07:45:45 51°13.662 2°55.959 122 0.1 197 9.3
2010-11-29 07:45:49 51°13.662 2°55.959 122.7 0.1 181 9.3
2010-11-29 07:45:54 51°13.662 2°55.959 123.1 0.1 141 9.3
2010-11-29 07:45:59 51°13.662 2°55.959 123.7 0.1 125 9.3
2010-11-29 07:46:05 51°13.662 2°55.959 124.3 0.1 205 9.3
2010-11-29 07:46:09 51°13.662 2°55.959 124.8 -999 63 9.3
2010-11-29 07:46:13 51°13.662 2°55.959 124.9 -999 73 9.3
2010-11-29 07:46:19 51°13.662 2°55.959 125.1 -999 91 9.3
2010-11-29 07:46:25 51°13.662 2°55.959 125.2 -999 213 9.3
2010-11-29 07:46:29 51°13.662 2°55.959 125.3 0.1 267 9.3
2010-11-29 07:46:34 51°13.662 2°55.959 125.4 -999 294 9.3
2010-11-29 07:46:39 51°13.661 2°55.959 125.5 -999 250 9.3
2010-11-29 07:46:45 51°13.662 2°55.959 125.6 -999 262 9.3
2010-11-29 07:46:49 51°13.662 2°55.959 125.7 0.1 269 9.3
2010-11-29 07:46:54 51°13.662 2°55.959 125.7 -999 238 9.3
2010-11-29 07:47:00 51°13.662 2°55.959 125.7 -999 42 9.4
2010-11-29 07:47:04 51°13.662 2°55.959 125.7 -999 228 9.3
2010-11-29 07:47:09 51°13.662 2°55.959 125.8 -999 15 9.3
2010-11-29 07:47:15 51°13.662 2°55.959 125.9 -999 79 9.2
2010-11-29 07:47:19 51°13.662 2°55.96 126.1 0.1 28 9.2
2010-11-29 07:47:25 51°13.662 2°55.96 126.3 0.1 68 9.2
2010-11-29 07:47:29 51°13.662 2°55.96 126.4 0.1 57 9.2
2010-11-29 07:47:33 51°13.662 2°55.96 126.6 -999 354 9.2
2010-11-29 07:47:40 51°13.662 2°55.96 126.9 -999 238 9.2
2010-11-29 07:47:45 51°13.662 2°55.96 126.9 -999 155 -999
2010-11-29 07:47:49 51°13.662 2°55.96 126.8 0.1 275 9.2
2010-11-29 07:47:54 51°13.662 2°55.96 126.9 -999 86 9.2
2010-11-29 07:48:00 51°13.662 2°55.96 127.1 -999 249 9.2
2010-11-29 07:48:04 51°13.662 2°55.96 127.4 0.1 271 9.2
2010-11-29 07:48:08 51°13.662 2°55.959 127.4 0.1 256 9.3
2010-11-29 07:48:13 51°13.662 2°55.959 127.5 0.1 269 9.2
2010-11-29 07:48:18 51°13.662 2°55.959 127.6 0.1 275 9.4
2010-11-29 07:48:25 51°13.662 2°55.959 127.6 -999 331 9.4
2010-11-29 07:48:29 51°13.662 2°55.96 127.6 -999 154 9.2
2010-11-29 07:48:34 51°13.662 2°55.96 127.5 -999 141 9.2
2010-11-29 07:48:39 51°13.662 2°55.96 127.3 0.1 49 9.2
2010-11-29 07:48:43 51°13.662 2°55.96 127.1 0.1 99 9.2
2010-11-29 07:48:48 51°13.662 2°55.96 127 0.1 133 9.2
2010-11-29 07:48:53 51°13.662 2°55.96 127 0.1 108 9.2
2010-11-29 07:48:58 51°13.662 2°55.961 127.1 0.1 108 9.2
2010-11-29 07:49:03 51°13.662 2°55.96 127.1 0.1 152 9.2
2010-11-29 07:49:09 51°13.663 2°55.96 127.1 0.1 41 9.2
2010-11-29 07:49:14 51°13.663 2°55.96 127.1 -999 78 9.2
2010-11-29 07:49:19 51°13.663 2°55.96 127.1 0.1 122 9.2
2010-11-29 07:49:24 51°13.663 2°55.96 127.1 -999 256 9.2
2010-11-29 07:49:28 51°13.663 2°55.96 127.1 -999 269 9.2
2010-11-29 07:49:33 51°13.663 2°55.96 127.1 -999 278 9.2
2010-11-29 07:49:39 51°13.663 2°55.96 127.1 -999 245 9.2
2010-11-29 07:49:43 51°13.663 2°55.96 127.1 0.1 251 9.1
2010-11-29 07:49:49 51°13.662 2°55.96 127.1 0.1 236 9.1
2010-11-29 07:49:54 51°13.663 2°55.96 127.1 0.1 78 9.2
2010-11-29 07:49:59 51°13.662 2°55.96 127.1 -999 279 9.2
2010-11-29 07:50:05 51°13.662 2°55.96 127.1 0.1 226 9.1
2010-11-29 07:50:09 51°13.662 2°55.96 127.1 -999 173 9.1
2010-11-29 07:50:14 51°13.662 2°55.96 127.1 -999 56 9.1
2010-11-29 07:50:20 51°13.662 2°55.96 127.1 -999 204 9.1
2010-11-29 07:50:24 51°13.662 2°55.96 127.1 0.1 286 9.1
2010-11-29 07:50:29 51°13.662 2°55.96 127.1 -999 298 9.1
2010-11-29 07:50:34 51°13.662 2°55.96 127.1 -999 19 -999
2010-11-29 07:50:39 51°13.662 2°55.96 127.1 -999 167 9.1
2010-11-29 07:50:45 51°13.662 2°55.96 127.1 -999 320 -999
2010-11-29 07:50:50 51°13.662 2°55.96 127.1 0.1 240 9.1
2010-11-29 07:50:55 51°13.662 2°55.96 127.1 0.1 245 9.1
2010-11-29 07:51:00 51°13.662 2°55.96 127.1 -999 262 9.1
2010-11-29 07:51:05 51°13.662 2°55.96 127.1 -999 283 9.1
2010-11-29 07:51:09 51°13.662 2°55.96 127.1 -999 266 9.1
2010-11-29 07:51:14 51°13.662 2°55.96 127.1 0.1 272 9.1
2010-11-29 07:51:19 51°13.662 2°55.96 127.1 -999 243 9.1
2010-11-29 07:51:24 51°13.662 2°55.96 127.1 -999 17 9.1
2010-11-29 07:51:29 51°13.662 2°55.96 127.2 -999 177 9.1
2010-11-29 07:51:34 51°13.662 2°55.96 127.2 -999 224 9.1
2010-11-29 07:51:39 51°13.662 2°55.96 127.2 0.1 253 9.1
2010-11-29 07:51:44 51°13.661 2°55.959 127.2 0.1 245 9.1
2010-11-29 07:51:49 51°13.662 2°55.96 127.3 -999 274 9.2
2010-11-29 07:51:54 51°13.662 2°55.96 127.4 -999 331 -999
2010-11-29 07:52:00 51°13.662 2°55.959 127.5 0.1 276 9.2
2010-11-29 07:52:04 51°13.662 2°55.959 127.7 0.1 242 9.2
2010-11-29 07:52:09 51°13.662 2°55.96 127.8 -999 72 -999
2010-11-29 07:52:15 51°13.661 2°55.96 127.9 -999 169 9.2
2010-11-29 07:52:20 51°13.661 2°55.959 127.9 -999 352 9.2
2010-11-29 07:52:25 51°13.661 2°55.96 127.9 0.1 36 9.2
2010-11-29 07:52:29 51°13.661 2°55.959 127.9 0.1 15 9.4
2010-11-29 07:52:34 51°13.662 2°55.959 127.9 -999 346 9.2
2010-11-29 07:52:39 51°13.661 2°55.959 127.9 -999 344 9.4
2010-11-29 07:52:44 51°13.661 2°55.959 127.9 -999 215 9.2
2010-11-29 07:52:49 51°13.662 2°55.959 127.9 -999 289 9.2
2010-11-29 07:52:55 51°13.662 2°55.959 127.9 0.1 322 -999
2010-11-29 07:53:00 51°13.661 2°55.959 127.9 0.1 261 9.2
2010-11-29 07:53:05 51°13.661 2°55.959 127.9 -999 350 9.2
2010-11-29 07:53:09 51°13.662 2°55.959 127.9 -999 95 9.2
2010-11-29 07:53:14 51°13.661 2°55.959 128 0.1 64 9.2
2010-11-29 07:53:19 51°13.661 2°55.959 128 -999 173 9.2
2010-11-29 07:53:24 51°13.661 2°55.959 128.1 0.1 59 9.2
2010-11-29 07:53:29 51°13.661 2°55.959 128.1 0.1 169 9.2
2010-11-29 07:53:34 51°13.661 2°55.96 128 0.1 62 9.1
2010-11-29 07:53:39 51°13.661 2°55.96 127.4 0.1 93 9.1
2010-11-29 07:53:45 51°13.661 2°55.96 126.4 0.1 98 9.1
2010-11-29 07:53:49 51°13.661 2°55.96 125 0.1 140 9.1
2010-11-29 07:53:55 51°13.661 2°55.96 123.5 -999 207 9.1
2010-11-29 07:54:00 51°13.662 2°55.96 122.4 -999 198 9.1
2010-11-29 07:54:05 51°13.662 2°55.96 121.6 0.1 201 9.1
2010-11-29 07:54:09 51°13.662 2°55.96 120.7 0.1 192 9.2
2010-11-29 07:54:14 51°13.662 2°55.96 119.6 0.1 203 9.1
2010-11-29 07:54:20 51°13.662 2°55.96 118.4 -999 239 9.2
2010-11-29 07:54:24 51°13.662 2°55.96 117.3 0.1 159 9.2
2010-11-29 07:54:29 51°13.662 2°55.96 116.1 0.1 183 9.1
2010-11-29 07:54:34 51°13.662 2°55.96 114.7 0.1 179 9.1
2010-11-29 07:54:40 51°13.661 2°55.96 113.4 0.1 201 9.2
2010-11-29 07:54:44 51°13.661 2°55.96 112.2 0.1 211 9.2
2010-11-29 07:54:49 51°13.661 2°55.96 111 0.2 222 9.2
2010-11-29 07:54:54 51°13.661 2°55.959 109.7 0.2 232 9.1
2010-11-29 07:54:59 51°13.661 2°55.959 109 0.2 279 9.1
2010-11-29 07:55:04 51°13.661 2°55.958 108.4 0.4 289 9.2
2010-11-29 07:55:09 51°13.661 2°55.957 108.1 0.6 291 9.2
2010-11-29 07:55:14 51°13.662 2°55.956 107.7 0.9 296 9.2
2010-11-29 07:55:19 51°13.663 2°55.954 107.3 1.1 295 9.2
2010-11-29 07:55:24 51°13.664 2°55.951 107 1.4 299 9.2
2010-11-29 07:55:29 51°13.665 2°55.948 106.8 1.6 293 9.2
2010-11-29 07:55:34 51°13.665 2°55.944 106.7 1.9 294 4.7
2010-11-29 07:55:40 51°13.666 2°55.94 106.6 2 290 -999
2010-11-29 07:55:45 51°13.668 2°55.935 106.3 2.3 293 -999
2010-11-29 07:55:51 51°13.669 2°55.929 106 2.4 289 -999
2010-11-29 07:55:57 51°13.671 2°55.922 105.3 2.7 292 -999
2010-11-29 07:56:02 51°13.672 2°55.916 104.7 3 291 -999
2010-11-29 07:56:08 51°13.673 2°55.908 104.2 3.1 288 -999
2010-11-29 07:56:13 51°13.675 2°55.902 103.7 3.3 288 -999
2010-11-29 07:56:18 51°13.676 2°55.894 103.3 3.5 286 -999
2010-11-29 07:56:23 51°13.678 2°55.886 103.2 3.7 286 -999
2010-11-29 07:56:28 51°13.679 2°55.878 102.8 3.8 284 -999
2010-11-29 07:56:33 51°13.68 2°55.87 102.4 3.9 282 -999
2010-11-29 07:56:38 51°13.68 2°55.861 101.7 4 280 -999
2010-11-29 07:56:43 51°13.683 2°55.852 100.2 4.2 287 -999
2010-11-29 07:56:48 51°13.683 2°55.843 99.1 4 281 -999
2010-11-29 07:56:53 51°13.684 2°55.834 98.2 4 280 -999
2010-11-29 07:56:58 51°13.685 2°55.826 97.3 4 281 -999
2010-11-29 07:57:03 51°13.686 2°55.817 96.6 3.8 278 -999
2010-11-29 07:57:08 51°13.687 2°55.809 95.9 3.8 278 -999
2010-11-29 07:57:13 51°13.688 2°55.8 95.1 3.7 277 -999
2010-11-29 07:57:18 51°13.689 2°55.793 94.4 3.6 278 -999
2010-11-29 07:57:23 51°13.689 2°55.785 93.6 3.6 278 -999
2010-11-29 07:57:28 51°13.689 2°55.777 92.7 3.5 274 15.2
2010-11-29 07:57:33 51°13.689 2°55.769 92.1 3.5 274 -999
2010-11-29 07:57:38 51°13.69 2°55.762 91.2 3.4 277 14.9
2010-11-29 07:57:43 51°13.691 2°55.755 90.1 3.2 278 -999
2010-11-29 07:57:48 51°13.691 2°55.748 89.1 3.1 271 -999
2010-11-29 07:57:53 51°13.691 2°55.742 88.2 3 272 -999
2010-11-29 07:57:57 51°13.692 2°55.737 87.6 2.8 274 14.9
2010-11-29 07:58:03 51°13.692 2°55.732 87.2 1.8 271 14.9
2010-11-29 07:58:07 51°13.692 2°55.73 86.1 0.8 280 15.2
2010-11-29 07:58:13 51°13.692 2°55.729 82.6 0.3 308 15
2010-11-29 07:58:17 51°13.693 2°55.729 76.5 0.5 353 14.8
2010-11-29 07:58:22 51°13.693 2°55.73 69.9 0.5 27 14.8
2010-11-29 07:58:27 51°13.693 2°55.73 65 0.5 41 14.9
2010-11-29 07:58:32 51°13.695 2°55.731 57.7 0.8 34 14.9
2010-11-29 07:58:37 51°13.696 2°55.733 52.3 1 25 14.9
2010-11-29 07:58:41 51°13.697 2°55.734 47.2 1 28 14.9
2010-11-29 07:58:46 51°13.698 2°55.734 42.5 1 27 14.8
2010-11-29 07:58:51 51°13.7 2°55.735 38.1 0.9 22 14.6
2010-11-29 07:58:56 51°13.701 2°55.736 35.3 0.6 16 14.3
2010-11-29 07:59:01 51°13.701 2°55.736 31.8 0.4 10 14.3
2010-11-29 07:59:05 51°13.702 2°55.735 28.7 0.4 341 14.3
2010-11-29 07:59:10 51°13.702 2°55.735 25.5 0.2 312 14.4
2010-11-29 07:59:15 51°13.702 2°55.734 23.3 0.4 256 14.4
2010-11-29 07:59:20 51°13.701 2°55.733 20.3 0.6 218 14.3
2010-11-29 07:59:25 51°13.7 2°55.732 18 0.9 213 14.5
2010-11-29 07:59:29 51°13.699 2°55.731 15.8 1.1 208 14.8
2010-11-29 07:59:34 51°13.698 2°55.73 13.9 1.1 206 14.9
2010-11-29 07:59:40 51°13.696 2°55.729 11.7 1 207 15.1
2010-11-29 07:59:45 51°13.695 2°55.728 10.2 1 205 4.8
2010-11-29 07:59:49 51°13.694 2°55.727 8.7 0.8 208 4.8
2010-11-29 07:59:54 51°13.694 2°55.727 6.9 0.5 227 -999
2010-11-29 08:00:00 51°13.694 2°55.726 4.2 0.3 303 14.6
2010-11-29 08:00:05 51°13.695 2°55.725 0.1 0.8 332 15.1
2010-11-29 08:00:10 51°13.697 2°55.724 355.7 1.3 344 4.8
2010-11-29 08:00:14 51°13.698 2°55.724 351.7 1.6 344 4.7
2010-11-29 08:00:19 51°13.701 2°55.723 348.3 2 345 16.3
2010-11-29 08:00:25 51°13.705 2°55.72 346.3 2.4 340 15.9
2010-11-29 08:00:29 51°13.708 2°55.719 343.4 2.7 339 14.1
2010-11-29 08:00:34 51°13.712 2°55.716 341 3.3 338 13.3
2010-11-29 08:00:40 51°13.718 2°55.712 338.3 3.7 337 13.1
2010-11-29 08:00:45 51°13.723 2°55.709 336.9 4 336 13
2010-11-29 08:00:49 51°13.727 2°55.706 335.7 4.3 335 12.9
2010-11-29 08:00:54 51°13.733 2°55.7 335.1 4.7 332 13.3
2010-11-29 08:01:00 51°13.741 2°55.695 334.7 5.1 333 13.2
2010-11-29 08:01:04 51°13.746 2°55.691 334.5 5.4 333 13.1
2010-11-29 08:01:09 51°13.753 2°55.685 333.8 5.7 333 13
2010-11-29 08:01:14 51°13.761 2°55.68 333.6 6 332 13.4
2010-11-29 08:01:20 51°13.77 2°55.672 333.3 6.2 333 13.1
2010-11-29 08:01:24 51°13.776 2°55.667 333.3 5 333 13
2010-11-29 08:01:29 51°13.783 2°55.659 333.2 6.5 332 13
2010-11-29 08:01:34 51°13.791 2°55.652 333.3 5.6 332 13
2010-11-29 08:01:36 51°13.796 2°55.649 334.3 2 334 12.9
2010-11-29 08:01:44 51°13.81 2°55.644 334.8 -999 154 13
2010-11-29 08:01:44 51°13.81 2°55.644 334 -999 154 11.9
2010-11-29 08:01:44 51°13.81 2°55.644 334.4 1 335 13
2010-11-29 08:01:44 51°13.81 2°55.644 335.6 -999 334 12.8
2010-11-29 08:01:44 51°13.81 2°55.644 334.4 0.4 334 13.2
2010-11-29 08:01:44 51°13.81 2°55.644 334.4 -999 335 12.4
2010-11-29 08:01:44 51°13.81 2°55.644 335.5 -999 154 13.2
2010-11-29 08:01:44 51°13.81 2°55.644 335.4 -999 335 13.3
2010-11-29 08:01:44 51°13.81 2°55.644 334.4 0.1 155 13.2
2010-11-29 08:01:44 51°13.81 2°55.644 334.4 -999 321 12.1
2010-11-29 08:01:44 51°13.81 2°55.644 335.1 -999 335 12.7
2010-11-29 08:01:44 51°13.81 2°55.644 335.3 -999 155 13.3
2010-11-29 08:01:44 51°13.81 2°55.644 335.7 -999 155 13.2
2010-11-29 08:02:49 51°13.81 2°55.644 335.4 -999 154 13.2
2010-11-29 08:02:54 51°13.81 2°55.644 335.4 -999 335 13.2
2010-11-29 08:03:00 51°13.81 2°55.644 335.2 -999 334 13.2
2010-11-29 08:03:05 51°13.81 2°55.644 335.3 -999 155 13.1
2010-11-29 08:03:09 51°13.81 2°55.644 335.1 -999 154 13.1
2010-11-29 08:03:14 51°13.81 2°55.644 335 -999 335 13.1
2010-11-29 08:03:20 51°13.81 2°55.644 335.5 -999 332 -999
2010-11-29 08:03:25 51°13.81 2°55.644 335.9 -999 154 12.7
2010-11-29 08:03:29 51°13.81 2°55.644 335.5 -999 336 12.8
2010-11-29 08:03:35 51°13.81 2°55.644 335.8 -999 334 12.7
2010-11-29 08:03:39 51°14.046 2°55.462 336.5 5.7 337 12.7
2010-11-29 08:03:44 51°14.058 2°55.453 336.2 9.2 336 12.7
2010-11-29 08:03:48 51°14.067 2°55.446 335.6 9.2 335 12.4
2010-11-29 08:03:53 51°14.079 2°55.437 335.4 9.2 336 12.4
2010-11-29 08:03:59 51°14.09 2°55.429 335.4 9.2 336 12.7
2010-11-29 08:04:05 51°14.107 2°55.418 335.2 9.3 335 12.6
2010-11-29 08:04:09 51°14.117 2°55.41 334.1 9.6 334 12.7
2010-11-29 08:04:14 51°14.129 2°55.401 333.6 9.6 333 12.6
2010-11-29 08:04:19 51°14.141 2°55.391 333.2 9.6 333 12.7
2010-11-29 08:04:24 51°14.153 2°55.382 332.6 9.7 332 12.6
2010-11-29 08:04:29 51°14.165 2°55.371 331.7 9.8 332 12.7
2010-11-29 08:04:34 51°14.177 2°55.361 331.6 9.8 331 12.6
2010-11-29 08:04:39 51°14.189 2°55.35 331.3 9.8 331 12.7
2010-11-29 08:04:44 51°14.201 2°55.339 330.9 9.8 330 12.6
2010-11-29 08:04:49 51°14.213 2°55.328 330.3 10.1 330 12.9
2010-11-29 08:04:54 51°14.225 2°55.317 329.9 10 330 12.6
2010-11-29 08:04:59 51°14.236 2°55.305 329.3 10.1 328 12.5
2010-11-29 08:05:04 51°14.248 2°55.294 329 10.1 329 12.6
2010-11-29 08:05:09 51°14.26 2°55.282 329.2 10.2 329 12.8
2010-11-29 08:05:14 51°14.272 2°55.271 329.5 10.1 330 12.6
2010-11-29 08:05:20 51°14.287 2°55.258 330.2 10.2 330 12.4
2010-11-29 08:05:24 51°14.297 2°55.249 330.3 10.2 329 12.4
2010-11-29 08:05:29 51°14.309 2°55.237 329.9 10.2 329 12.5
2010-11-29 08:05:34 51°14.321 2°55.225 329.1 10.2 328 12.6
2010-11-29 08:05:39 51°14.333 2°55.213 327.8 10.2 327 11.7
2010-11-29 08:05:45 51°14.347 2°55.198 327 10.3 327 11.9
2010-11-29 08:05:49 51°14.357 2°55.188 327 10.3 327 12.2
2010-11-29 08:05:54 51°14.369 2°55.176 327.4 10.2 327 12.6
2010-11-29 08:05:59 51°14.381 2°55.164 327.5 10.3 328 12.2
2010-11-29 08:06:04 51°14.393 2°55.152 328.3 10.2 328 11.9
2010-11-29 08:06:09 51°14.405 2°55.14 328.7 10.2 328 12.4
2010-11-29 08:06:14 51°14.417 2°55.128 328.2 10.3 327 12.2
2010-11-29 08:06:19 51°14.429 2°55.116 327.8 10.2 327 11.8
2010-11-29 08:06:24 51°14.441 2°55.103 327.8 10.1 327 11.9
2010-11-29 08:06:29 51°14.453 2°55.091 327.7 10.1 326 12.7
2010-11-29 08:06:34 51°14.464 2°55.078 327 10.3 325 13.1
2010-11-29 08:06:39 51°14.476 2°55.065 326 10.4 323 13.1
2010-11-29 08:06:44 51°14.488 2°55.051 325.1 10.5 324 13.2
2010-11-29 08:06:49 51°14.499 2°55.037 324.5 10.5 323 12.6
2010-11-29 08:06:54 51°14.511 2°55.024 324.7 10.6 325 12.7
2010-11-29 08:06:59 51°14.524 2°55.01 324.7 10.8 325 12.9
2010-11-29 08:07:04 51°14.536 2°54.996 325.2 11 326 13.2
2010-11-29 08:07:09 51°14.549 2°54.983 326 10.9 327 13.2
2010-11-29 08:07:14 51°14.561 2°54.97 326.3 11 325 13.4
2010-11-29 08:07:20 51°14.577 2°54.953 325.7 11.2 326 13.1
2010-11-29 08:07:24 51°14.587 2°54.942 325.9 11.3 327 13
2010-11-29 08:07:29 51°14.6 2°54.929 326 11.2 327 13.5
2010-11-29 08:07:34 51°14.613 2°54.916 326.5 11.3 326 13.6
2010-11-29 08:07:39 51°14.626 2°54.901 325.7 11.4 325 13.4
2010-11-29 08:07:44 51°14.639 2°54.887 324.5 11.6 325 13.3
2010-11-29 08:07:49 51°14.652 2°54.871 323.1 11.6 322 13.6
2010-11-29 08:07:54 51°14.665 2°54.856 322.3 11.7 322 13.3
2010-11-29 08:08:00 51°14.68 2°54.835 320.2 11.8 320 12.9
2010-11-29 08:08:04 51°14.69 2°54.822 318.7 12 321 13
2010-11-29 08:08:09 51°14.703 2°54.805 318.8 12.2 321 12.7
2010-11-29 08:08:14 51°14.717 2°54.789 320.6 12.2 324 13.2
2010-11-29 08:08:19 51°14.73 2°54.773 322.2 12.4 324 13.2
2010-11-29 08:08:25 51°14.747 2°54.754 322.3 12.3 323 12.5
2010-11-29 08:08:29 51°14.758 2°54.74 321.6 12.4 322 13.3
2010-11-29 08:08:34 51°14.772 2°54.723 320.7 12.6 322 13.5
2010-11-29 08:08:39 51°14.786 2°54.706 320 12.7 323 13.1
2010-11-29 08:08:44 51°14.801 2°54.69 321.9 12.8 327 13.1
2010-11-29 08:08:49 51°14.815 2°54.674 323.6 12.9 325 13.5
2010-11-29 08:08:54 51°14.83 2°54.658 323.9 12.8 326 13
2010-11-29 08:08:59 51°14.845 2°54.642 324.2 13.1 328 13.2
2010-11-29 08:09:04 51°14.86 2°54.626 324.3 12.9 325 13.1
2010-11-29 08:09:09 51°14.875 2°54.611 323.8 12.9 327 13.7
2010-11-29 08:09:14 51°14.89 2°54.594 323.9 13.1 326 13.7
2010-11-29 08:09:19 51°14.905 2°54.578 324 13.1 326 13.6
2010-11-29 08:09:24 51°14.92 2°54.562 324 13.1 327 12.4
2010-11-29 08:09:29 51°14.936 2°54.546 324.8 13.2 327 12.5
2010-11-29 08:09:34 51°14.951 2°54.53 324.4 13.2 327 12.5
2010-11-29 08:09:39 51°14.966 2°54.514 324.7 13.2 326 12.3
2010-11-29 08:09:44 51°14.982 2°54.499 325 13.1 327 12.2
2010-11-29 08:09:49 51°14.996 2°54.482 323.9 13.1 326 12.6
2010-11-29 08:09:54 51°15.012 2°54.466 323.6 13.1 327 12.8
2010-11-29 08:10:00 51°15.03 2°54.446 323.6 13.3 325 13
2010-11-29 08:10:04 51°15.042 2°54.433 324 13.3 326 13.1
2010-11-29 08:10:09 51°15.058 2°54.417 323.8 13.3 326 12.5
2010-11-29 08:10:14 51°15.073 2°54.4 323.8 13.3 326 12.3
2010-11-29 08:10:19 51°15.088 2°54.385 324 13.4 327 12.3
2010-11-29 08:10:25 51°15.107 2°54.365 323.9 13.4 326 12.4
2010-11-29 08:10:29 51°15.119 2°54.352 324.3 13.3 327 12
2010-11-29 08:10:34 51°15.135 2°54.336 323.9 13.3 327 12
2010-11-29 08:10:40 51°15.153 2°54.317 323.9 13.4 326 12.1
2010-11-29 08:10:44 51°15.165 2°54.304 323.6 13.4 325 12.1
2010-11-29 08:10:49 51°15.18 2°54.287 323.2 13.2 325 11.9
2010-11-29 08:10:54 51°15.195 2°54.27 322.8 13.3 324 12.6
2010-11-29 08:10:59 51°15.21 2°54.253 322.3 13.3 323 12.8
2010-11-29 08:11:04 51°15.225 2°54.235 321.8 13.3 323 12.1
2010-11-29 08:11:09 51°15.24 2°54.218 321.9 13.3 323 12.5
2010-11-29 08:11:14 51°15.254 2°54.2 321.7 13.2 323 12.5
2010-11-29 08:11:19 51°15.269 2°54.183 322.1 13.2 323 13
2010-11-29 08:11:24 51°15.283 2°54.165 321.4 13.2 323 13.5
2010-11-29 08:11:29 51°15.298 2°54.147 322 12.9 323 11.9
2010-11-29 08:11:34 51°15.313 2°54.13 321.7 13.1 323 12.9
2010-11-29 08:11:39 51°15.328 2°54.113 322.3 13.3 325 12.6
2010-11-29 08:11:44 51°15.343 2°54.097 322.7 13.3 324 12.1
2010-11-29 08:11:49 51°15.357 2°54.08 322.5 13.2 325 12.6
2010-11-29 08:11:54 51°15.372 2°54.062 322.8 13.1 324 12.2
2010-11-29 08:12:00 51°15.389 2°54.042 322.6 12.8 323 12.2
2010-11-29 08:12:04 51°15.401 2°54.029 323 13 324 12.5
2010-11-29 08:12:09 51°15.415 2°54.011 322.8 13.1 323 11.9
2010-11-29 08:12:14 51°15.431 2°53.994 322.5 13.1 325 11.4
2010-11-29 08:12:19 51°15.444 2°53.977 322.4 12.9 323 12.3
2010-11-29 08:12:24 51°15.46 2°53.96 322.7 13.2 324 12.6
2010-11-29 08:12:29 51°15.474 2°53.943 322.6 13.4 324 12.8
2010-11-29 08:12:34 51°15.489 2°53.925 323.1 13.2 324 12.5
2010-11-29 08:12:40 51°15.507 2°53.906 323.3 13.2 325 12.3
2010-11-29 08:12:44 51°15.519 2°53.892 323.4 13.4 325 12.7
2010-11-29 08:12:49 51°15.534 2°53.875 323.8 13.3 324 12.6
2010-11-29 08:12:54 51°15.549 2°53.857 323.4 13.3 324 12.5
2010-11-29 08:12:59 51°15.564 2°53.841 323.4 13.1 325 12.2
2010-11-29 08:13:04 51°15.579 2°53.824 323.1 13.3 325 13
2010-11-29 08:13:09 51°15.594 2°53.807 323.2 13.4 325 12.5
2010-11-29 08:13:14 51°15.609 2°53.79 323.1 13.3 325 12.3
2010-11-29 08:13:19 51°15.624 2°53.773 323.3 13.3 325 12.2
2010-11-29 08:13:24 51°15.639 2°53.756 323.1 13.3 325 12.3
2010-11-29 08:13:29 51°15.655 2°53.739 322.5 13.4 324 12.4
2010-11-29 08:13:34 51°15.67 2°53.722 322.5 13.6 324 12.9
2010-11-29 08:13:39 51°15.685 2°53.705 322.8 13.4 326 12.1
2010-11-29 08:13:44 51°15.7 2°53.688 322.7 13.2 324 11.8
2010-11-29 08:13:49 51°15.714 2°53.67 321.9 13 324 12.5
2010-11-29 08:13:54 51°15.729 2°53.653 321.8 13.3 324 12.6
2010-11-29 08:13:59 51°15.744 2°53.636 321.7 13.4 324 12.8
2010-11-29 08:14:04 51°15.759 2°53.619 322.4 13.3 325 12.5
2010-11-29 08:14:09 51°15.774 2°53.602 322.4 13.4 324 13.1
2010-11-29 08:14:14 51°15.79 2°53.586 322.7 13.5 326 13
2010-11-29 08:14:19 51°15.805 2°53.568 322.5 13.4 324 12.7
2010-11-29 08:14:24 51°15.82 2°53.552 322.8 13.4 325 13
2010-11-29 08:14:29 51°15.835 2°53.535 322.4 13.3 326 12.9
2010-11-29 08:14:34 51°15.851 2°53.518 323.1 13.4 326 12.4
2010-11-29 08:14:40 51°15.869 2°53.499 323.2 13.4 327 12.7
2010-11-29 08:14:44 51°15.882 2°53.486 324.5 13.3 328 12.5
2010-11-29 08:14:49 51°15.897 2°53.469 324.3 13.4 327 12.8
2010-11-29 08:14:54 51°15.913 2°53.455 325.5 13.6 330 13.1
2010-11-29 08:14:59 51°15.929 2°53.439 326 13.5 330 12.9
2010-11-29 08:15:04 51°15.945 2°53.424 327.1 13.4 330 12.6
2010-11-29 08:15:09 51°15.96 2°53.41 327.7 13.2 330 12.7
2010-11-29 08:15:14 51°15.977 2°53.395 327.6 13.3 330 12.5
2010-11-29 08:15:19 51°15.994 2°53.381 328.3 13.5 331 12.9
2010-11-29 08:15:25 51°16.012 2°53.363 328.2 13.4 330 12.8
2010-11-29 08:15:29 51°16.026 2°53.352 328.5 13.5 331 13
2010-11-29 08:15:34 51°16.042 2°53.337 328.7 13.4 330 13.1
2010-11-29 08:15:39 51°16.058 2°53.323 328.7 13.4 331 12.9
2010-11-29 08:15:44 51°16.075 2°53.309 329.2 13.5 331 13.5
2010-11-29 08:15:49 51°16.091 2°53.294 329.5 13.3 332 12.6
2010-11-29 08:15:54 51°16.108 2°53.281 329.6 13.3 333 13
2010-11-29 08:15:59 51°16.124 2°53.267 329.7 13.4 332 13.5
2010-11-29 08:16:04 51°16.141 2°53.253 329.7 13.2 333 12.8
2010-11-29 08:16:09 51°16.157 2°53.24 330.2 13.2 332 12.7
2010-11-29 08:16:14 51°16.174 2°53.227 330.3 13.5 333 13
2010-11-29 08:16:19 51°16.191 2°53.213 330.3 13.3 332 12.7
2010-11-29 08:16:24 51°16.206 2°53.199 330 13.4 332 13.7
2010-11-29 08:16:29 51°16.223 2°53.186 329.9 13.2 333 13.1
2010-11-29 08:16:34 51°16.239 2°53.172 330 13.1 332 12.7
2010-11-29 08:16:40 51°16.259 2°53.156 329.8 13.3 333 12.9
2010-11-29 08:16:44 51°16.272 2°53.145 329.8 13.2 332 13
2010-11-29 08:16:49 51°16.288 2°53.131 329.7 13.4 332 13.3
2010-11-29 08:16:54 51°16.305 2°53.117 329.7 13.4 332 13.1
2010-11-29 08:17:00 51°16.324 2°53.1 329.4 13.5 331 13.4
2010-11-29 08:17:04 51°16.337 2°53.089 329.8 13.1 332 12.8
2010-11-29 08:17:09 51°16.353 2°53.075 328.9 13.1 330 12.7
2010-11-29 08:17:14 51°16.369 2°53.061 328.8 13.2 332 13.4
2010-11-29 08:17:19 51°16.385 2°53.047 329.3 13 331 12.7
2010-11-29 08:17:25 51°16.403 2°53.03 329.5 12.8 331 12.7
2010-11-29 08:17:29 51°16.416 2°53.019 328.9 13 332 13.2
2010-11-29 08:17:34 51°16.433 2°53.006 329.6 13.2 331 12.9
2010-11-29 08:17:39 51°16.449 2°52.992 329.4 13.3 332 13.3
2010-11-29 08:17:44 51°16.466 2°52.978 329.6 13.6 333 13.7
2010-11-29 08:17:49 51°16.482 2°52.964 329.6 13.4 331 13.5
2010-11-29 08:17:54 51°16.499 2°52.95 329.4 13.4 333 12.8
2010-11-29 08:17:59 51°16.514 2°52.936 329.3 13.2 332 12.8
2010-11-29 08:18:04 51°16.53 2°52.923 329.6 13.4 333 13.6
2010-11-29 08:18:09 51°16.547 2°52.909 329.5 13.3 331 12.9
2010-11-29 08:18:14 51°16.563 2°52.895 329.1 13.1 332 12.4
2010-11-29 08:18:19 51°16.579 2°52.881 328.7 13.4 331 13
2010-11-29 08:18:24 51°16.595 2°52.867 328.5 13.3 333 12.6
2010-11-29 08:18:29 51°16.611 2°52.853 329 13.3 331 12.7
2010-11-29 08:18:34 51°16.627 2°52.839 328.8 13.3 332 12.6
2010-11-29 08:18:39 51°16.644 2°52.826 329.1 13.6 332 12.9
2010-11-29 08:18:44 51°16.66 2°52.811 329 13.6 332 12.6
2010-11-29 08:18:49 51°16.677 2°52.798 329.3 13.6 333 12.4
2010-11-29 08:18:54 51°16.693 2°52.783 329.1 13.5 331 12.2
2010-11-29 08:19:00 51°16.712 2°52.766 329.5 13.4 332 12.2
2010-11-29 08:19:04 51°16.725 2°52.755 329.2 13.3 332 11.7
2010-11-29 08:19:09 51°16.742 2°52.741 329.3 13.3 332 11.4
2010-11-29 08:19:14 51°16.759 2°52.728 329.6 13.5 333 11.1
2010-11-29 08:19:19 51°16.775 2°52.714 329.5 13.5 333 11
2010-11-29 08:19:25 51°16.795 2°52.697 329.4 13.3 332 10.9
2010-11-29 08:19:29 51°16.809 2°52.686 329.3 13.4 332 11.3
2010-11-29 08:19:34 51°16.826 2°52.672 329.1 13.5 333 11.4
2010-11-29 08:19:39 51°16.842 2°52.658 329.6 13.5 332 11.3
2010-11-29 08:19:44 51°16.859 2°52.644 329.6 13.5 332 10.9
2010-11-29 08:19:49 51°16.875 2°52.629 329.2 13.5 331 11
2010-11-29 08:19:54 51°16.892 2°52.616 329.3 13.5 333 11
2010-11-29 08:19:59 51°16.908 2°52.601 329.5 13.4 330 12
2010-11-29 08:20:04 51°16.924 2°52.587 329.3 13.3 332 11
2010-11-29 08:20:09 51°16.941 2°52.573 329.1 13.5 333 11
2010-11-29 08:20:14 51°16.958 2°52.56 329.5 13.5 333 11.1
2010-11-29 08:20:19 51°16.974 2°52.546 329.8 13.5 333 11.3
2010-11-29 08:20:24 51°16.991 2°52.532 329.9 13.5 332 11.5
2010-11-29 08:20:29 51°17.007 2°52.519 330.1 13.5 332 10.9
2010-11-29 08:20:34 51°17.023 2°52.505 329.3 13.4 331 11.4
2010-11-29 08:20:39 51°17.04 2°52.491 329.6 13.6 332 11.3
2010-11-29 08:20:44 51°17.056 2°52.476 329.3 13.4 331 11.4
2010-11-29 08:20:49 51°17.073 2°52.462 329.2 13.4 332 12
2010-11-29 08:20:54 51°17.089 2°52.448 329.3 13.3 331 10.9
2010-11-29 08:20:59 51°17.105 2°52.434 329.3 13.1 331 11
2010-11-29 08:21:04 51°17.121 2°52.42 329 13.3 330 11.8
2010-11-29 08:21:09 51°17.138 2°52.405 329 13.1 332 10.9
2010-11-29 08:21:14 51°17.154 2°52.392 329.2 13.3 331 11.2
2010-11-29 08:21:20 51°17.174 2°52.375 329.4 13.5 332 11.6
2010-11-29 08:21:24 51°17.187 2°52.364 329.3 13.2 331 11.2
2010-11-29 08:21:29 51°17.204 2°52.35 329.4 13.3 332 11.3
2010-11-29 08:21:34 51°17.22 2°52.336 329.6 13.4 331 11.4
2010-11-29 08:21:40 51°17.239 2°52.319 329.3 13.4 331 12.3
2010-11-29 08:21:44 51°17.253 2°52.308 329.1 13.6 332 11.9
2010-11-29 08:21:49 51°17.27 2°52.294 329.3 13.7 332 11.8
2010-11-29 08:21:54 51°17.286 2°52.28 329.5 13.7 332 11.6
2010-11-29 08:21:59 51°17.303 2°52.266 329.3 13.7 332 11.7
2010-11-29 08:22:05 51°17.322 2°52.249 329.6 13.7 332 12.2
2010-11-29 08:22:09 51°17.335 2°52.237 329.6 13.6 331 12.8
2010-11-29 08:22:14 51°17.352 2°52.221 328.3 13.5 330 12.4
2010-11-29 08:22:19 51°17.368 2°52.206 327.9 13.5 329 12.4
2010-11-29 08:22:24 51°17.384 2°52.19 326.9 13.6 328 13
2010-11-29 08:22:29 51°17.4 2°52.174 326 13.7 328 12.4
2010-11-29 08:22:34 51°17.416 2°52.158 325.3 13.5 328 12.3
2010-11-29 08:22:39 51°17.431 2°52.142 325.1 13.6 327 13
2010-11-29 08:22:44 51°17.447 2°52.126 324.6 13.4 326 12.3
2010-11-29 08:22:49 51°17.462 2°52.109 324.5 13.4 325 13.5
2010-11-29 08:22:54 51°17.478 2°52.093 325.1 13.6 328 12.9
2010-11-29 08:22:59 51°17.493 2°52.076 324.6 13.4 325 12.3
2010-11-29 08:23:04 51°17.508 2°52.06 325.2 13.3 327 12.3
2010-11-29 08:23:09 51°17.523 2°52.043 324.2 13.2 324 12.4
2010-11-29 08:23:14 51°17.539 2°52.027 324.6 13.3 327 12.7
2010-11-29 08:23:19 51°17.555 2°52.01 324.7 13.5 326 11.9
2010-11-29 08:23:24 51°17.57 2°51.994 325 13.3 327 11.6
2010-11-29 08:23:29 51°17.586 2°51.978 325.6 13.5 327 12
2010-11-29 08:23:34 51°17.602 2°51.961 325.7 13.4 327 11.5
2010-11-29 08:23:40 51°17.62 2°51.942 326.5 13.4 327 12.2
2010-11-29 08:23:44 51°17.632 2°51.929 326 13.2 325 11.9
2010-11-29 08:23:49 51°17.648 2°51.914 325.6 13.2 328 11.2
2010-11-29 08:23:54 51°17.664 2°51.898 326 13.1 327 11.2
2010-11-29 08:24:00 51°17.682 2°51.879 326.1 13.4 328 11.7
2010-11-29 08:24:05 51°17.698 2°51.864 326.5 13.3 328 11.5
2010-11-29 08:24:09 51°17.711 2°51.851 326.7 13.6 329 11.6
2010-11-29 08:24:14 51°17.727 2°51.836 326.7 13.6 329 11
2010-11-29 08:24:19 51°17.743 2°51.819 326.5 13.6 328 11.2
2010-11-29 08:24:24 51°17.759 2°51.804 326.6 13.7 329 11.2
2010-11-29 08:24:29 51°17.775 2°51.788 327 13.5 328 11.3
2010-11-29 08:24:34 51°17.791 2°51.773 327.1 13.5 329 11.1
2010-11-29 08:24:39 51°17.807 2°51.757 326.9 13.5 328 11.1
2010-11-29 08:24:44 51°17.823 2°51.742 326.9 13.5 329 11
2010-11-29 08:24:49 51°17.839 2°51.726 326.7 13.6 327 11.6
2010-11-29 08:24:54 51°17.855 2°51.71 326.2 13.4 328 11.3
2010-11-29 08:24:59 51°17.871 2°51.694 326 13.6 327 11.6
2010-11-29 08:25:04 51°17.887 2°51.678 325.7 13.7 329 11.8
2010-11-29 08:25:09 51°17.903 2°51.661 325.9 13.8 328 11.4
2010-11-29 08:25:14 51°17.919 2°51.645 325.8 13.7 328 11.5
2010-11-29 08:25:19 51°17.934 2°51.629 325.6 13.7 327 11.6
2010-11-29 08:25:24 51°17.95 2°51.613 326 13.6 327 12.1
2010-11-29 08:25:29 51°17.967 2°51.596 325.5 13.9 327 12.4
2010-11-29 08:25:34 51°17.983 2°51.579 325.4 13.7 328 11.5
2010-11-29 08:25:39 51°17.998 2°51.563 325.6 13.4 327 11.5
2010-11-29 08:25:44 51°18.013 2°51.547 324.5 13.5 326 12.4
2010-11-29 08:25:49 51°18.028 2°51.53 324.8 13.4 325 13.2
2010-11-29 08:25:54 51°18.044 2°51.513 324.3 13.5 326 12.4
2010-11-29 08:25:59 51°18.059 2°51.498 324.6 13.3 327 12.1
2010-11-29 08:26:04 51°18.075 2°51.481 324.8 13.4 327 12.6
2010-11-29 08:26:09 51°18.09 2°51.466 325.3 13.6 327 13.2
2010-11-29 08:26:14 51°18.106 2°51.449 325.4 13.5 326 13.1
2010-11-29 08:26:20 51°18.125 2°51.431 325.4 13.1 328 12.2
2010-11-29 08:26:24 51°18.138 2°51.418 325.6 13.2 327 12.6
2010-11-29 08:26:29 51°18.154 2°51.403 325.6 13.6 329 13.5
2010-11-29 08:26:34 51°18.169 2°51.386 325.2 13.6 325 13.2
2010-11-29 08:26:39 51°18.185 2°51.37 324.7 13.4 329 12.9
2010-11-29 08:26:44 51°18.2 2°51.354 324.8 13.6 326 13.3
2010-11-29 08:26:49 51°18.215 2°51.336 323.9 13.5 326 13.5
2010-11-29 08:26:54 51°18.23 2°51.321 324.6 13.4 327 13.4
2010-11-29 08:26:59 51°18.246 2°51.304 324.6 13.4 327 13.1
2010-11-29 08:27:05 51°18.265 2°51.285 325.2 13.4 328 13.8
2010-11-29 08:27:09 51°18.277 2°51.272 325.3 13.5 327 14
2010-11-29 08:27:14 51°18.294 2°51.256 325.5 13.6 328 13.7
2010-11-29 08:27:19 51°18.309 2°51.239 325.2 13.6 326 13.8
2010-11-29 08:27:24 51°18.325 2°51.224 325.5 13.5 329 14.3
2010-11-29 08:27:29 51°18.341 2°51.207 325.5 13.3 325 13.5
2010-11-29 08:27:34 51°18.357 2°51.191 324.6 13.6 329 14.3
2010-11-29 08:27:39 51°18.373 2°51.175 325.3 13.5 327 14.6
2010-11-29 08:27:44 51°18.388 2°51.159 324.9 13.6 326 15.2
2010-11-29 08:27:49 51°18.403 2°51.142 324.5 13.4 326 15
2010-11-29 08:27:54 51°18.418 2°51.126 324.5 13.3 327 14.5
2010-11-29 08:27:59 51°18.434 2°51.11 325 13.4 327 14.8
2010-11-29 08:28:04 51°18.45 2°51.093 325.2 13.5 327 14.6
2010-11-29 08:28:09 51°18.466 2°51.078 325.3 13.4 327 14.6
2010-11-29 08:28:14 51°18.481 2°51.061 324.7 13.4 325 15.9
2010-11-29 08:28:20 51°18.499 2°51.041 325.1 13.3 326 14.8
2010-11-29 08:28:24 51°18.512 2°51.029 325.2 13.4 327 14.8
2010-11-29 08:28:29 51°18.527 2°51.012 325.1 13.4 327 14.8
2010-11-29 08:28:34 51°18.543 2°50.996 325.4 13.4 328 15.2
2010-11-29 08:28:40 51°18.562 2°50.977 325.5 13.5 327 14.9
2010-11-29 08:28:44 51°18.575 2°50.964 325.4 13.5 328 15.5
2010-11-29 08:28:49 51°18.591 2°50.948 325.8 13.4 326 15.1
2010-11-29 08:28:54 51°18.606 2°50.931 325.1 13.5 327 15.8
2010-11-29 08:28:59 51°18.622 2°50.915 325.3 13.4 327 15.2
2010-11-29 08:29:05 51°18.64 2°50.895 325.2 13.5 326 15.4
2010-11-29 08:29:09 51°18.653 2°50.882 324.6 13.6 328 15.5
2010-11-29 08:29:14 51°18.668 2°50.865 324.8 13.5 326 15.2
2010-11-29 08:29:19 51°18.683 2°50.848 324.4 13.4 327 16
2010-11-29 08:29:24 51°18.699 2°50.833 325.1 13.5 327 15.9
2010-11-29 08:29:29 51°18.715 2°50.816 325.2 13.4 326 15.7
2010-11-29 08:29:34 51°18.731 2°50.8 325.5 13.6 328 16.1
2010-11-29 08:29:39 51°18.747 2°50.783 325.7 13.8 326 16.1
2010-11-29 08:29:44 51°18.762 2°50.767 325.4 13.6 329 16.1
2010-11-29 08:29:49 51°18.778 2°50.75 325.9 13.5 325 16.1
2010-11-29 08:29:54 51°18.794 2°50.735 325.5 13.6 329 16.1
2010-11-29 08:29:59 51°18.81 2°50.718 326 13.7 326 16.3
2010-11-29 08:30:04 51°18.825 2°50.702 325.9 13.3 328 15.6
2010-11-29 08:30:09 51°18.841 2°50.686 325.3 13.3 326 15.5
2010-11-29 08:30:14 51°18.856 2°50.669 324.3 13.3 326 16
2010-11-29 08:30:20 51°18.874 2°50.65 325.5 13.1 326 15.4
2010-11-29 08:30:24 51°18.886 2°50.636 324.6 13 326 15.2
2010-11-29 08:30:29 51°18.902 2°50.621 325.1 13.1 326 15.9
2010-11-29 08:30:34 51°18.917 2°50.605 324.9 13.1 326 16.4
2010-11-29 08:30:40 51°18.935 2°50.585 324.9 13.3 326 15.6
2010-11-29 08:30:44 51°18.948 2°50.572 324.2 13.4 328 15.5
2010-11-29 08:30:49 51°18.963 2°50.555 324.9 13.4 326 16.1
2010-11-29 08:30:54 51°18.978 2°50.539 325.2 13.2 326 15.6
2010-11-29 08:30:59 51°18.994 2°50.522 325.2 13.2 326 15.1
2010-11-29 08:31:05 51°19.012 2°50.503 325.4 13.2 328 14.9
2010-11-29 08:31:09 51°19.025 2°50.49 325.6 13 326 15.1
2010-11-29 08:31:14 51°19.04 2°50.474 325 13.2 325 15.2
2010-11-29 08:31:19 51°19.055 2°50.457 325.1 13.2 326 14.2
2010-11-29 08:31:24 51°19.071 2°50.441 325 13.2 326 13.9
2010-11-29 08:31:29 51°19.086 2°50.424 325 13.1 326 13.5
2010-11-29 08:31:34 51°19.101 2°50.408 325.1 13.2 326 14.1
2010-11-29 08:31:39 51°19.116 2°50.392 325.4 13.3 326 14.3
2010-11-29 08:31:44 51°19.131 2°50.375 325.2 13.3 325 14
2010-11-29 08:31:49 51°19.147 2°50.359 325.4 13.5 326 14.3
2010-11-29 08:31:54 51°19.163 2°50.342 325.3 13.4 326 13.7
2010-11-29 08:31:59 51°19.178 2°50.326 325.4 13.5 327 14
2010-11-29 08:32:04 51°19.194 2°50.309 325.4 13.6 326 14.1
2010-11-29 08:32:09 51°19.209 2°50.292 325.1 13.4 326 13.1
2010-11-29 08:32:14 51°19.224 2°50.276 325.4 13.4 325 13.3
2010-11-29 08:32:19 51°19.239 2°50.258 324.9 13.4 325 12.8
2010-11-29 08:32:24 51°19.255 2°50.242 325.3 13.5 326 12.6
2010-11-29 08:32:29 51°19.27 2°50.225 325.4 13.6 327 12.9
2010-11-29 08:32:34 51°19.286 2°50.209 326 13.5 327 12.5
2010-11-29 08:32:40 51°19.305 2°50.189 326.2 13.5 326 13
2010-11-29 08:32:44 51°19.317 2°50.176 325.6 13.5 326 12.8
2010-11-29 08:32:49 51°19.333 2°50.159 326 13.6 327 12.3
2010-11-29 08:32:54 51°19.349 2°50.143 326.4 13.6 326 12.4
2010-11-29 08:32:59 51°19.365 2°50.126 325.7 13.7 327 12.8
2010-11-29 08:33:05 51°19.383 2°50.106 325.8 13.6 326 12.4
2010-11-29 08:33:09 51°19.396 2°50.093 326.2 13.6 327 13
2010-11-29 08:33:14 51°19.41 2°50.076 325.6 13.4 323 14.2
2010-11-29 08:33:20 51°19.427 2°50.054 325.5 12.2 320 -999
2010-11-29 08:33:25 51°19.44 2°50.037 322 12.4 322 12
2010-11-29 08:33:31 51°19.459 2°50.019 323.6 12.8 328 13
2010-11-29 08:33:36 51°19.473 2°50.002 324.3 12.9 324 13.2
2010-11-29 08:33:41 51°19.488 2°49.986 324.3 13.3 327 13.8
2010-11-29 08:33:45 51°19.501 2°49.972 324.5 13.4 325 14.7
2010-11-29 08:33:50 51°19.515 2°49.955 324.4 13.3 326 14.6
2010-11-29 08:33:55 51°19.531 2°49.939 325.1 13.4 325 14.9
2010-11-29 08:34:00 51°19.547 2°49.922 324.5 13.5 327 15
2010-11-29 08:34:05 51°19.562 2°49.905 325.3 13.7 324 15.2
2010-11-29 08:34:09 51°19.575 2°49.892 324.7 13.8 326 15.1
2010-11-29 08:34:14 51°19.59 2°49.874 324.2 13.5 325 14.8
2010-11-29 08:34:19 51°19.605 2°49.858 324.5 13.2 325 14.7
2010-11-29 08:34:24 51°19.62 2°49.84 324.2 13.3 324 15.8
2010-11-29 08:34:29 51°19.635 2°49.823 323.6 13.3 324 16.1
2010-11-29 08:34:34 51°19.65 2°49.806 324.8 13.2 325 15.3
2010-11-29 08:34:40 51°19.668 2°49.786 323 13.2 324 14.7
2010-11-29 08:34:44 51°19.681 2°49.772 322.8 13.4 324 15.5
2010-11-29 08:34:49 51°19.696 2°49.755 323.7 13.5 326 16.1
2010-11-29 08:34:54 51°19.711 2°49.737 323.7 13 322 15.2
2010-11-29 08:34:59 51°19.726 2°49.721 322.3 13.1 325 16.3
2010-11-29 08:35:05 51°19.743 2°49.7 323.8 13.3 325 17.3
2010-11-29 08:35:09 51°19.755 2°49.687 323.8 13.2 325 17.3
2010-11-29 08:35:14 51°19.77 2°49.671 324 13.2 326 17.1
2010-11-29 08:35:19 51°19.785 2°49.654 323.8 13 325 16.8
2010-11-29 08:35:24 51°19.8 2°49.638 323.1 13.1 324 16.7
2010-11-29 08:35:29 51°19.815 2°49.621 322.5 13.1 327 17.7
2010-11-29 08:35:34 51°19.83 2°49.605 323.8 13.3 324 18.4
2010-11-29 08:35:39 51°19.845 2°49.587 322.9 13.3 325 18.2
2010-11-29 08:35:45 51°19.863 2°49.568 323.8 13.2 327 18.2
2010-11-29 08:35:49 51°19.875 2°49.553 323.1 13.3 324 18.2
2010-11-29 08:35:54 51°19.891 2°49.538 324.1 13.3 329 18.9
2010-11-29 08:35:59 51°19.906 2°49.522 325.1 13.4 327 19
2010-11-29 08:36:04 51°19.923 2°49.507 326 13.2 331 18.5
2010-11-29 08:36:09 51°19.939 2°49.495 330.3 13.3 334 18.8
2010-11-29 08:36:14 51°19.955 2°49.481 331.2 13.2 332 19.4
2010-11-29 08:36:19 51°19.973 2°49.47 333.9 13.6 339 20.2
2010-11-29 08:36:24 51°19.99 2°49.458 335.1 13.5 335 20
2010-11-29 08:36:29 51°20.007 2°49.447 336 13.3 341 19.9
2010-11-29 08:36:34 51°20.024 2°49.437 337.4 13.4 337 20.7
2010-11-29 08:36:39 51°20.041 2°49.425 338.3 13.4 340 21.1
2010-11-29 08:36:44 51°20.059 2°49.416 339.2 13.4 341 20.7
2010-11-29 08:36:49 51°20.076 2°49.405 338.9 13.4 338 20.8
2010-11-29 08:36:54 51°20.093 2°49.396 339.2 13.3 341 22.2
2010-11-29 08:36:59 51°20.11 2°49.386 340.5 13.2 340 22.3
2010-11-29 08:37:04 51°20.128 2°49.375 339.5 13.2 340 21.6
2010-11-29 08:37:09 51°20.146 2°49.367 339.9 13.4 343 21.6
2010-11-29 08:37:14 51°20.163 2°49.357 340.3 13.4 340 22.4
2010-11-29 08:37:20 51°20.185 2°49.346 340.6 13.5 342 22.7
2010-11-29 08:37:24 51°20.199 2°49.337 340.7 13.2 340 22.1
2010-11-29 08:37:29 51°20.216 2°49.328 340.6 13.4 341 22.7
2010-11-29 08:37:34 51°20.234 2°49.317 340.2 13.6 341 23.1
2010-11-29 08:37:39 51°20.252 2°49.307 340.2 13.4 341 22.3
2010-11-29 08:37:45 51°20.272 2°49.296 341.2 13.2 340 23
2010-11-29 08:37:49 51°20.286 2°49.287 339.8 13.4 339 24.2
2010-11-29 08:37:54 51°20.303 2°49.277 339.8 13.4 340 23.9
2010-11-29 08:37:59 51°20.321 2°49.268 339.3 13.7 341 24.1
2010-11-29 08:38:04 51°20.338 2°49.258 339.9 13.3 341 23.6
2010-11-29 08:38:09 51°20.356 2°49.25 341.9 13.5 346 24.3
2010-11-29 08:38:14 51°20.375 2°49.245 346.3 13.5 349 23.4
2010-11-29 08:38:19 51°20.393 2°49.239 348 13.3 350 23.7
2010-11-29 08:38:24 51°20.411 2°49.236 351.1 13.4 353 24.6
2010-11-29 08:38:29 51°20.429 2°49.231 352.8 13.2 352 23.5
2010-11-29 08:38:34 51°20.447 2°49.229 353.5 13.2 358 23.8
2010-11-29 08:38:39 51°20.466 2°49.229 356.4 13.3 1 23.8
2010-11-29 08:38:44 51°20.484 2°49.233 2.6 13.3 8 23.9
2010-11-29 08:38:49 51°20.502 2°49.237 7.3 13.5 7 24.1
2010-11-29 08:38:54 51°20.521 2°49.241 8.1 13.5 10 23.6
2010-11-29 08:38:59 51°20.539 2°49.248 10.7 13.4 13 23.7
2010-11-29 08:39:04 51°20.558 2°49.254 12.4 13.5 12 23.9
2010-11-29 08:39:09 51°20.576 2°49.261 13.8 13.5 15 24.1
2010-11-29 08:39:14 51°20.594 2°49.268 15.3 13.6 14 24.2
2010-11-29 08:39:19 51°20.612 2°49.277 16.9 13.6 17 24.3
2010-11-29 08:39:24 51°20.63 2°49.286 17.5 13.7 17 24.6
2010-11-29 08:39:29 51°20.648 2°49.295 18.1 13.6 18 23.8
2010-11-29 08:39:34 51°20.666 2°49.304 18.7 13.6 18 23.8
2010-11-29 08:39:40 51°20.688 2°49.314 19 13.7 17 24.4
2010-11-29 08:39:44 51°20.702 2°49.322 19.2 13.5 19 24.1
2010-11-29 08:39:49 51°20.72 2°49.332 19.8 13.5 18 23.9
2010-11-29 08:39:54 51°20.737 2°49.341 19.8 13.5 19 24.5
2010-11-29 08:39:59 51°20.755 2°49.351 20.4 13.4 19 24.7
2010-11-29 08:40:04 51°20.773 2°49.361 20.1 13.5 19 24.1
2010-11-29 08:40:09 51°20.791 2°49.37 20.2 13.6 18 24.5
2010-11-29 08:40:14 51°20.808 2°49.38 19.7 13.6 19 24.4
2010-11-29 08:40:19 51°20.826 2°49.39 20.1 13.4 19 23.4
2010-11-29 08:40:24 51°20.844 2°49.399 20.1 13.4 19 23.5
2010-11-29 08:40:29 51°20.861 2°49.409 20.2 13.3 19 24.4
2010-11-29 08:40:34 51°20.878 2°49.419 20.7 13.4 20 24.6
2010-11-29 08:40:39 51°20.897 2°49.429 20.5 13.6 18 24.4
2010-11-29 08:40:44 51°20.914 2°49.439 20.4 13.6 20 24.5
2010-11-29 08:40:49 51°20.932 2°49.448 20.4 13.4 19 23.5
2010-11-29 08:40:54 51°20.95 2°49.458 20.4 13.5 19 24
2010-11-29 08:40:59 51°20.968 2°49.468 20 13.4 19 23.4
2010-11-29 08:41:04 51°20.985 2°49.478 20.1 13.1 19 22.9
2010-11-29 08:41:09 51°21.002 2°49.487 20.2 13.3 18 24.5
2010-11-29 08:41:14 51°21.02 2°49.496 19.9 13.4 19 24.4
2010-11-29 08:41:19 51°21.038 2°49.506 19.7 13.3 19 23.5
2010-11-29 08:41:24 51°21.055 2°49.516 20.3 13.4 20 23.2
2010-11-29 08:41:29 51°21.072 2°49.525 20.2 13.5 18 24
2010-11-29 08:41:34 51°21.091 2°49.535 19.8 13.6 19 23.6
2010-11-29 08:41:40 51°21.113 2°49.547 19.8 13.8 18 23.5
2010-11-29 08:41:44 51°21.127 2°49.554 19.4 13.6 20 23.6
2010-11-29 08:41:49 51°21.145 2°49.564 19.7 13.6 19 23.6
2010-11-29 08:41:54 51°21.162 2°49.575 20.1 13.7 20 24
2010-11-29 08:41:59 51°21.18 2°49.585 20.3 13.5 19 23.1
2010-11-29 08:42:05 51°21.201 2°49.596 19.9 13.6 19 23.7
2010-11-29 08:42:09 51°21.216 2°49.604 19.7 13.7 19 23.2
2010-11-29 08:42:14 51°21.234 2°49.614 20 13.8 19 23.5
2010-11-29 08:42:19 51°21.252 2°49.624 19.7 13.9 18 24.2
2010-11-29 08:42:24 51°21.27 2°49.632 17.8 13.5 16 23.1
2010-11-29 08:42:29 51°21.288 2°49.64 17.3 13.5 16 23.1
2010-11-29 08:42:34 51°21.307 2°49.648 16 13.5 14 22.9
2010-11-29 08:42:39 51°21.325 2°49.655 14.6 13.8 12 23.6
2010-11-29 08:42:44 51°21.343 2°49.66 13.3 13.6 12 23.4
2010-11-29 08:42:49 51°21.362 2°49.666 12.1 13.7 11 23.7
2010-11-29 08:42:54 51°21.38 2°49.671 11.6 13.6 11 23.2
2010-11-29 08:42:59 51°21.399 2°49.677 10.6 13.6 9 22.8
2010-11-29 08:43:04 51°21.418 2°49.68 8.6 13.7 7 22.9
2010-11-29 08:43:09 51°21.437 2°49.684 7.5 13.9 7 23.8
2010-11-29 08:43:14 51°21.456 2°49.686 6.2 13.7 5 23
2010-11-29 08:43:19 51°21.475 2°49.69 5.6 13.6 6 22.8
2010-11-29 08:43:24 51°21.494 2°49.691 4.8 13.7 3 23
2010-11-29 08:43:29 51°21.513 2°49.694 4.3 13.8 4 23
2010-11-29 08:43:34 51°21.532 2°49.693 2 13.8 358 23.6
2010-11-29 08:43:39 51°21.551 2°49.694 1.4 13.7 2 22.8
2010-11-29 08:43:44 51°21.57 2°49.692 359.8 13.7 358 23
2010-11-29 08:43:49 51°21.589 2°49.693 0.1 13.7 -999 22.5
2010-11-29 08:43:54 51°21.608 2°49.69 357.9 13.7 355 22.9
2010-11-29 08:43:59 51°21.627 2°49.689 357 13.7 358 22.9
2010-11-29 08:44:04 51°21.645 2°49.686 355.8 13.8 353 23.9
2010-11-29 08:44:09 51°21.665 2°49.683 355 13.8 356 23.7
2010-11-29 08:44:14 51°21.684 2°49.679 353.3 13.8 351 23.7
2010-11-29 08:44:20 51°21.706 2°49.674 351.6 13.8 353 24.2
2010-11-29 08:44:24 51°21.721 2°49.669 350.8 13.8 349 24.2
2010-11-29 08:44:29 51°21.74 2°49.664 349.5 13.8 350 24.2
2010-11-29 08:44:34 51°21.759 2°49.657 348.1 13.9 345 24.6
2010-11-29 08:44:39 51°21.776 2°49.647 344.6 13.7 343 24.2
2010-11-29 08:44:44 51°21.794 2°49.639 343 13.8 342 24.1
2010-11-29 08:44:49 51°21.812 2°49.628 341.7 13.6 341 24.2
2010-11-29 08:44:54 51°21.83 2°49.617 339.1 13.7 335 24.1
2010-11-29 08:44:59 51°21.846 2°49.603 334.7 13.4 334 24.3
2010-11-29 08:45:04 51°21.863 2°49.591 333.1 13.4 332 24.2
2010-11-29 08:45:09 51°21.879 2°49.575 328.3 13.5 325 25.4
2010-11-29 08:45:14 51°21.894 2°49.559 326 13.4 329 24.6
2010-11-29 08:45:19 51°21.909 2°49.541 324 13.4 322 24.6
2010-11-29 08:45:24 51°21.924 2°49.523 321.5 13.6 323 25.1
2010-11-29 08:45:29 51°21.939 2°49.505 320.5 13.4 320 24.5
2010-11-29 08:45:34 51°21.952 2°49.483 317.2 13.3 315 24.1
2010-11-29 08:45:39 51°21.964 2°49.462 314.4 13.2 313 24.9
2010-11-29 08:45:44 51°21.976 2°49.44 312.2 13.1 311 25.1
2010-11-29 08:45:49 51°21.989 2°49.419 309.8 13.2 311 24.3
2010-11-29 08:45:54 51°22 2°49.396 307.6 13.2 311 24.7
2010-11-29 08:45:59 51°22.012 2°49.374 308.1 13.2 309 24.2
2010-11-29 08:46:04 51°22.022 2°49.349 306.2 13 307 24.3
2010-11-29 08:46:09 51°22.035 2°49.328 306.4 13.3 307 24.7
2010-11-29 08:46:14 51°22.045 2°49.304 305.3 13.2 306 24.4
2010-11-29 08:46:20 51°22.058 2°49.276 306 13.2 307 24.1
2010-11-29 08:46:24 51°22.066 2°49.257 304.2 13.1 308 24.4
2010-11-29 08:46:29 51°22.078 2°49.234 305.3 13.3 304 24.9
2010-11-29 08:46:34 51°22.089 2°49.21 304 13.1 309 24.9
2010-11-29 08:46:40 51°22.102 2°49.182 305.7 13.2 306 25
2010-11-29 08:46:44 51°22.11 2°49.163 305.5 13.2 306 24.4
2010-11-29 08:46:49 51°22.123 2°49.141 305.3 13.1 310 24.2
2010-11-29 08:46:54 51°22.133 2°49.117 305.2 13.2 306 24.2
2010-11-29 08:46:59 51°22.145 2°49.096 306.6 13.4 312 24.8
2010-11-29 08:47:05 51°22.159 2°49.068 307.2 13.2 308 24.9
2010-11-29 08:47:09 51°22.169 2°49.051 308.6 13.1 313 24.4
2010-11-29 08:47:14 51°22.181 2°49.028 308.2 13.2 309 24.5
2010-11-29 08:47:19 51°22.193 2°49.007 308.9 13.2 314 24.3
2010-11-29 08:47:24 51°22.205 2°48.985 309.3 13 310 24.4
2010-11-29 08:47:29 51°22.217 2°48.963 308.9 13.2 311 25.3
2010-11-29 08:47:34 51°22.229 2°48.942 309.7 13.3 313 24.9
2010-11-29 08:47:39 51°22.241 2°48.919 309.7 13 312 24
2010-11-29 08:47:44 51°22.254 2°48.898 309.7 13.2 312 24.5
2010-11-29 08:47:49 51°22.266 2°48.877 309.8 13 312 23.6
2010-11-29 08:47:54 51°22.277 2°48.854 308.7 13.3 309 24
2010-11-29 08:47:59 51°22.29 2°48.833 309.7 13.2 312 23.1
2010-11-29 08:48:04 51°22.301 2°48.81 308.5 13.3 310 23.4
2010-11-29 08:48:09 51°22.314 2°48.788 309.5 13 312 22
2010-11-29 08:48:14 51°22.325 2°48.766 309 12.8 310 22
2010-11-29 08:48:19 51°22.337 2°48.744 307.8 13.1 311 22.4
2010-11-29 08:48:24 51°22.349 2°48.722 309.1 13.1 310 21
2010-11-29 08:48:29 51°22.361 2°48.701 306.8 13 312 20.5
2010-11-29 08:48:34 51°22.372 2°48.678 307.3 13 310 20.7
2010-11-29 08:48:40 51°22.387 2°48.652 308.9 13.2 311 20.1
2010-11-29 08:48:44 51°22.396 2°48.634 306.8 13.1 309 20.2
2010-11-29 08:48:49 51°22.409 2°48.612 307.8 13.3 313 20.9
2010-11-29 08:48:54 51°22.42 2°48.59 308.6 13.1 309 20.3
2010-11-29 08:48:59 51°22.432 2°48.568 307.3 13.2 311 20
2010-11-29 08:49:05 51°22.447 2°48.542 308.7 13.3 312 20.1
2010-11-29 08:49:09 51°22.456 2°48.525 309.1 13.1 310 19.6
2010-11-29 08:49:14 51°22.468 2°48.503 308.2 13 312 20
2010-11-29 08:49:19 51°22.48 2°48.48 307.8 13.2 309 19.7
2010-11-29 08:49:25 51°22.495 2°48.455 309.3 13 314 18.5
2010-11-29 08:49:29 51°22.504 2°48.436 307.8 12.9 310 18.3
2010-11-29 08:49:34 51°22.516 2°48.413 306.9 13.2 310 18.1
2010-11-29 08:49:39 51°22.529 2°48.393 308.9 13.3 314 18.1
2010-11-29 08:49:44 51°22.54 2°48.369 308.2 13 308 18.2
2010-11-29 08:49:49 51°22.552 2°48.347 304.9 13.3 309 17.4
2010-11-29 08:49:54 51°22.564 2°48.324 306.3 13.4 314 17
2010-11-29 08:49:59 51°22.576 2°48.302 307.6 13.3 309 17.7
2010-11-29 08:50:04 51°22.587 2°48.279 305.1 13.3 307 18.6
2010-11-29 08:50:09 51°22.599 2°48.257 305.7 13.4 311 18.1
2010-11-29 08:50:14 51°22.611 2°48.234 306.9 13.2 312 17.6
2010-11-29 08:50:19 51°22.623 2°48.213 308.3 13.3 312 18.5
2010-11-29 08:50:24 51°22.636 2°48.191 308.8 13.4 312 18.5
2010-11-29 08:50:29 51°22.649 2°48.17 309.2 13.5 315 18.8
2010-11-29 08:50:34 51°22.662 2°48.148 310 13.5 312 18.6
2010-11-29 08:50:39 51°22.675 2°48.127 310.5 13.1 314 17.8
2010-11-29 08:50:44 51°22.686 2°48.105 310 13.3 313 18.7
2010-11-29 08:50:49 51°22.7 2°48.084 310.4 13.3 316 19.4
2010-11-29 08:50:54 51°22.712 2°48.063 311.5 13.1 314 19
2010-11-29 08:50:59 51°22.725 2°48.042 310.7 13.4 316 19.9
2010-11-29 08:51:05 51°22.741 2°48.016 311.5 13.5 314 19.8
2010-11-29 08:51:09 51°22.751 2°47.999 311.5 13.3 314 18.7
2010-11-29 08:51:14 51°22.765 2°47.979 312.3 13.3 316 18.3
2010-11-29 08:51:19 51°22.778 2°47.956 310.4 13.8 311 18.6
2010-11-29 08:51:25 51°22.794 2°47.931 310.6 13.7 318 17.6
2010-11-29 08:51:29 51°22.804 2°47.913 311.5 13.4 310 17.6
2010-11-29 08:51:34 51°22.816 2°47.892 309.7 13.6 313 18.7
2010-11-29 08:51:39 51°22.83 2°47.871 311 13.5 314 19.8
2010-11-29 08:51:44 51°22.842 2°47.849 311.5 13.1 311 18.9
2010-11-29 08:51:49 51°22.855 2°47.827 309.8 13.4 315 19.1
2010-11-29 08:51:54 51°22.869 2°47.806 310.9 13.1 313 19.1
2010-11-29 08:51:59 51°22.88 2°47.785 309.6 12.9 312 20
2010-11-29 08:52:04 51°22.892 2°47.762 307.5 13.4 309 20.5
2010-11-29 08:52:09 51°22.905 2°47.74 307.8 13.6 313 21.5
2010-11-29 08:52:14 51°22.917 2°47.718 308.8 12.9 309 20.4
2010-11-29 08:52:19 51°22.928 2°47.695 306.7 13.3 310 20.4
2010-11-29 08:52:24 51°22.941 2°47.673 307 13.7 312 21.5
2010-11-29 08:52:29 51°22.953 2°47.652 309.3 13.2 313 21.3
2010-11-29 08:52:34 51°22.964 2°47.629 307.1 13.1 308 21.5
2010-11-29 08:52:39 51°22.976 2°47.607 307.1 13.3 313 21.6
2010-11-29 08:52:44 51°22.989 2°47.585 308.4 13.2 309 21.7
2010-11-29 08:52:49 51°23.001 2°47.562 306.8 13.2 311 22.3
2010-11-29 08:52:54 51°23.013 2°47.54 306 13.2 309 19.9
2010-11-29 08:52:59 51°23.024 2°47.517 306.1 13.4 313 19.4
2010-11-29 08:53:04 51°23.037 2°47.495 307.7 13.3 311 20.4
2010-11-29 08:53:09 51°23.048 2°47.472 306 13.4 311 22.2
2010-11-29 08:53:14 51°23.061 2°47.451 307.7 13.4 313 22.9
2010-11-29 08:53:19 51°23.072 2°47.428 306.8 13.2 309 22.2
2010-11-29 08:53:25 51°23.087 2°47.401 306.2 13.2 312 21.7
2010-11-29 08:53:29 51°23.096 2°47.381 306.8 13.5 308 19.4
2010-11-29 08:53:34 51°23.108 2°47.359 305.3 13.5 310 16.2
2010-11-29 08:53:39 51°23.12 2°47.338 307.8 12.9 312 18.1
2010-11-29 08:53:45 51°23.133 2°47.31 307.1 13.1 307 19.8
2010-11-29 08:53:49 51°23.142 2°47.291 304.1 13.6 309 21
2010-11-29 08:53:54 51°23.156 2°47.27 307.1 13.7 314 22.1
2010-11-29 08:53:59 51°23.167 2°47.246 306.4 13.2 306 22.1
2010-11-29 08:54:05 51°23.181 2°47.22 304.7 13.1 313 21.3
2010-11-29 08:54:09 51°23.19 2°47.2 306.4 13.6 307 19.3
2010-11-29 08:54:14 51°23.202 2°47.178 306 13.4 312 20.9
2010-11-29 08:54:19 51°23.215 2°47.156 309.3 13.1 308 21.5
2010-11-29 08:54:24 51°23.225 2°47.132 304.6 13.1 305 21.3
2010-11-29 08:54:29 51°23.235 2°47.109 302 13.1 307 23.1
2010-11-29 08:54:34 51°23.248 2°47.087 304.7 13.1 310 23.4
2010-11-29 08:54:39 51°23.258 2°47.062 303.8 13.3 306 23.3
2010-11-29 08:54:44 51°23.27 2°47.039 303.9 13.5 311 23.8
2010-11-29 08:54:49 51°23.282 2°47.017 305.7 13.4 309 23.7
2010-11-29 08:54:54 51°23.294 2°46.993 306.2 13.5 311 20.4
2010-11-29 08:54:59 51°23.306 2°46.971 306.6 13.4 311 21.4
2010-11-29 08:55:04 51°23.318 2°46.947 306.9 13.5 310 22.7
2010-11-29 08:55:09 51°23.33 2°46.925 307.2 13.4 312 23.4
2010-11-29 08:55:14 51°23.343 2°46.904 308.5 13.5 313 24.4
2010-11-29 08:55:19 51°23.354 2°46.88 306.8 13.4 310 24.5
2010-11-29 08:55:24 51°23.367 2°46.858 307.6 13.4 311 24.8
2010-11-29 08:55:29 51°23.379 2°46.835 307.6 13.4 311 25.9
2010-11-29 08:55:34 51°23.391 2°46.812 307.8 13.5 311 24.9
2010-11-29 08:55:39 51°23.403 2°46.79 308.3 13.3 311 25.1
2010-11-29 08:55:45 51°23.418 2°46.762 308.2 13.5 311 25.4
2010-11-29 08:55:49 51°23.427 2°46.744 307.8 13.4 308 25.1
2010-11-29 08:55:54 51°23.44 2°46.723 308.4 13.3 314 25.2
2010-11-29 08:55:59 51°23.451 2°46.699 308.9 13.4 308 25.9
2010-11-29 08:56:05 51°23.465 2°46.672 308.2 13.4 308 25.8
2010-11-29 08:56:09 51°23.475 2°46.653 307.2 13.6 308 26
2010-11-29 08:56:14 51°23.486 2°46.629 306.6 13.5 308 26
2010-11-29 08:56:19 51°23.497 2°46.607 306.6 13.1 310 26
2010-11-29 08:56:25 51°23.511 2°46.578 307.3 13.4 306 26.4
2010-11-29 08:56:29 51°23.52 2°46.56 305.2 13.3 308 26.6
2010-11-29 08:56:34 51°23.531 2°46.536 305 13.2 307 26.7
2010-11-29 08:56:39 51°23.543 2°46.514 306.6 13.3 309 27
2010-11-29 08:56:44 51°23.553 2°46.489 304.5 13.5 304 26.9
2010-11-29 08:56:49 51°23.566 2°46.466 304.4 13.5 311 26.6
2010-11-29 08:56:54 51°23.576 2°46.441 305.1 13.3 303 26.5
2010-11-29 08:56:59 51°23.588 2°46.419 304.7 13.4 310 27.2
2010-11-29 08:57:04 51°23.599 2°46.395 304.5 13.3 304 28
2010-11-29 08:57:09 51°23.61 2°46.371 303.7 13.4 308 28.3
2010-11-29 08:57:14 51°23.622 2°46.347 305.7 13.5 308 27.2
2010-11-29 08:57:19 51°23.631 2°46.322 303.5 13.2 303 27.7
2010-11-29 08:57:24 51°23.643 2°46.3 304.5 13.3 311 28.3
2010-11-29 08:57:29 51°23.654 2°46.276 305.7 13.4 305 28.3
2010-11-29 08:57:34 51°23.664 2°46.251 302.4 13.2 305 29.4
2010-11-29 08:57:39 51°23.677 2°46.229 305.2 13.4 308 30.2
2010-11-29 08:57:44 51°23.687 2°46.205 303.9 13.4 306 30.2
2010-11-29 08:57:49 51°23.699 2°46.181 304.1 13.7 307 30.7
2010-11-29 08:57:54 51°23.709 2°46.157 304.7 13.5 306 29.8
2010-11-29 08:57:59 51°23.72 2°46.133 303.8 13.4 306 29
2010-11-29 08:58:05 51°23.733 2°46.104 303.9 13.5 307 28.8
2010-11-29 08:58:09 51°23.743 2°46.086 304.7 13.5 309 29.4
2010-11-29 08:58:14 51°23.754 2°46.063 305.3 13.4 308 29.6
2010-11-29 08:58:19 51°23.765 2°46.038 304.2 13.4 306 29.4
2010-11-29 08:58:25 51°23.779 2°46.011 305.7 13.6 311 29
2010-11-29 08:58:29 51°23.787 2°45.99 304.4 13.4 304 29.9
2010-11-29 08:58:34 51°23.799 2°45.968 305 13.4 311 29.3
2010-11-29 08:58:39 51°23.81 2°45.943 304.5 13.5 306 28.6
2010-11-29 08:58:44 51°23.821 2°45.92 304.9 13.5 306 28.9
2010-11-29 08:58:49 51°23.832 2°45.896 303.7 13.3 306 29
2010-11-29 08:58:54 51°23.843 2°45.872 306.4 13.4 304 28.2
2010-11-29 08:58:59 51°23.852 2°45.847 300.8 13.5 301 28.2
2010-11-29 08:59:04 51°23.863 2°45.823 301.1 13.4 306 28.6
2010-11-29 08:59:09 51°23.873 2°45.798 302.5 13.1 304 27.5
2010-11-29 08:59:14 51°23.884 2°45.775 302.7 13.2 307 27.8
2010-11-29 08:59:19 51°23.894 2°45.75 303.1 13.3 306 27.9
2010-11-29 08:59:24 51°23.906 2°45.728 304.6 13.2 308 28
2010-11-29 08:59:29 51°23.916 2°45.704 303.5 13.2 308 27.7
2010-11-29 08:59:34 51°23.928 2°45.681 305 13.4 306 28.2
2010-11-29 08:59:39 51°23.939 2°45.657 304.3 13.4 308 28.2
2010-11-29 08:59:44 51°23.951 2°45.634 304.1 13.3 307 27.7
2010-11-29 08:59:49 51°23.961 2°45.61 304.6 13.3 307 28.5
2010-11-29 08:59:54 51°23.972 2°45.586 304.6 13.5 306 28.4
2010-11-29 08:59:59 51°23.984 2°45.562 303.9 13.5 309 27.9
2010-11-29 09:00:05 51°23.997 2°45.533 305.1 13.6 307 28
2010-11-29 09:00:09 51°24.006 2°45.514 305.6 13.6 308 28
2010-11-29 09:00:14 51°24.018 2°45.49 305.4 13.6 306 26.5
2010-11-29 09:00:19 51°24.028 2°45.467 304.5 13 308 27.8
2010-11-29 09:00:25 51°24.042 2°45.439 305.4 13.1 305 27.6
2010-11-29 09:00:29 51°24.05 2°45.42 303.6 13.2 307 27.3
2010-11-29 09:00:34 51°24.062 2°45.397 304.3 13.4 309 26.9
2010-11-29 09:00:39 51°24.072 2°45.372 303.9 13.2 302 27.4
2010-11-29 09:00:45 51°24.085 2°45.345 302.3 12.9 309 28
2010-11-29 09:00:49 51°24.094 2°45.326 305.7 13.2 304 27.3
2010-11-29 09:00:54 51°24.103 2°45.301 302.2 13.2 304 27.3
2010-11-29 09:00:59 51°24.115 2°45.278 302.7 13.1 304 27.1
2010-11-29 09:01:04 51°24.124 2°45.253 302.7 13.1 308 27.5
2010-11-29 09:01:09 51°24.136 2°45.23 304.9 13.4 305 27.3
2010-11-29 09:01:14 51°24.146 2°45.204 301.7 13.2 304 27.8
2010-11-29 09:01:19 51°24.157 2°45.181 302.7 13.3 305 27.6
2010-11-29 09:01:24 51°24.167 2°45.156 302.6 13.3 303 27.7
2010-11-29 09:01:29 51°24.177 2°45.131 302.1 13.4 304 27.4
2010-11-29 09:01:34 51°24.188 2°45.107 302 13.4 306 27.3
2010-11-29 09:01:39 51°24.198 2°45.082 301.5 13.5 303 27.2
2010-11-29 09:01:44 51°24.209 2°45.057 301.1 13.5 304 27.3
2010-11-29 09:01:49 51°24.218 2°45.031 299.1 13.4 299 27.4
2010-11-29 09:01:54 51°24.228 2°45.006 299.1 13.3 302 27.3
2010-11-29 09:01:59 51°24.236 2°44.98 297.4 13.2 298 27.3
2010-11-29 09:02:04 51°24.246 2°44.955 297.8 13.2 303 27.1
2010-11-29 09:02:09 51°24.254 2°44.928 297.2 13.2 296 24.6
2010-11-29 09:02:14 51°24.263 2°44.904 295.5 12.9 301 24.9
2010-11-29 09:02:19 51°24.272 2°44.88 297.7 12.7 298 26.1
2010-11-29 09:02:25 51°24.282 2°44.85 298.4 12.5 301 25.8
2010-11-29 09:02:29 51°24.288 2°44.831 295.8 12.2 298 25.7
2010-11-29 09:02:34 51°24.297 2°44.808 295.5 12.2 302 26.4
2010-11-29 09:02:39 51°24.305 2°44.785 296.3 12.1 297 26.9
2010-11-29 09:02:45 51°24.314 2°44.757 294.9 11.9 299 27
2010-11-29 09:02:49 51°24.32 2°44.74 296.2 11.3 298 26.6
2010-11-29 09:02:54 51°24.327 2°44.718 294.9 10.9 296 26.9
2010-11-29 09:02:59 51°24.334 2°44.699 296.3 10.2 299 27.1
2010-11-29 09:03:04 51°24.34 2°44.678 295.1 9.9 296 27.3
2010-11-29 09:03:09 51°24.347 2°44.66 294.9 9.5 300 27.5
2010-11-29 09:03:14 51°24.353 2°44.641 295.4 9.4 294 27.5
2010-11-29 09:03:19 51°24.36 2°44.624 295.6 9.2 303 27.4
2010-11-29 09:03:24 51°24.365 2°44.606 296.1 8.8 296 27
2010-11-29 09:03:29 51°24.371 2°44.589 295.5 8.6 300 27.6
2010-11-29 09:03:34 51°24.377 2°44.573 295.5 8.6 299 27.4
2010-11-29 09:03:39 51°24.383 2°44.557 295.6 8.4 301 27.8
2010-11-29 09:03:44 51°24.389 2°44.54 296.2 8.3 299 27.4
2010-11-29 09:03:49 51°24.394 2°44.524 295.5 8.1 300 27.6
2010-11-29 09:03:54 51°24.4 2°44.509 295 8 297 28.6
2010-11-29 09:03:59 51°24.405 2°44.493 295.8 8 298 28.9
2010-11-29 09:04:05 51°24.411 2°44.474 295.5 7.8 297 28.2
2010-11-29 09:04:09 51°24.415 2°44.462 294.6 7.8 298 27.2
2010-11-29 09:04:14 51°24.42 2°44.447 295.6 7.6 298 27.8
2010-11-29 09:04:20 51°24.426 2°44.429 295.4 7.7 299 27.7
2010-11-29 09:04:24 51°24.431 2°44.417 295.7 7.8 301 27.7
2010-11-29 09:04:29 51°24.436 2°44.402 295.9 7.9 300 27.6
2010-11-29 09:04:34 51°24.442 2°44.388 296.8 7.9 303 27.3
2010-11-29 09:04:39 51°24.447 2°44.373 296.5 7.9 302 26.3
2010-11-29 09:04:45 51°24.453 2°44.355 295.9 7.7 297 26.9
2010-11-29 09:04:49 51°24.457 2°44.343 294.7 7.6 295 27.2
2010-11-29 09:04:54 51°24.461 2°44.328 291.9 7.5 294 26.4
2010-11-29 09:04:59 51°24.465 2°44.312 288.4 7.3 292 25.3
2010-11-29 09:05:05 51°24.468 2°44.294 284.6 7.3 287 24.5
2010-11-29 09:05:09 51°24.47 2°44.282 281.5 7.2 287 22.6
2010-11-29 09:05:14 51°24.472 2°44.266 279.2 7.2 283 21.3
2010-11-29 09:05:19 51°24.474 2°44.251 276.9 7 281 18.7
2010-11-29 09:05:25 51°24.476 2°44.232 274.3 7 278 20.1
2010-11-29 09:05:29 51°24.477 2°44.22 272.9 7 279 22.3
2010-11-29 09:05:34 51°24.478 2°44.205 270.9 6.9 274 24.1
2010-11-29 09:05:39 51°24.48 2°44.19 270.4 7 280 23.5